»·PEaware :: N208GG KCMA-KOXR

N208GG :: KCMA-KOXR

FLIGHT INFORMATION

Flight Status: Arrived
Operator: Privately registered:
United States
More flights under this callsign
Pilot: Hunter M. (19355)
Aircraft: CESSNA 172 SKYHAWK
(C172)
More flights by this aircraft type
Origin: KCMA Camarillo
United States
Destination: KOXR Oxnard
United States
More flights between these airports :: More routes between these airports
Route: +CMA
File this flight plan on PilotEdge
Remarks: practice approaches
Altitude:
(Current/Filed)
3,500ft
Speed:
(Current/Filed)
118kts
Departed: 24-Sep-19 08:34 AM
Arrived: 24-Sep-19 09:02 AM
Distance/Time
Traveled:
6nm/0:28
Distance/Time
To Go:
Arrived

Flight Plot

Page will automatically refresh every two minutes.


Map Options




Map Legend


Flown Route
Filed Route
Departure Airport
Arrival Airport
Navaid (VOR, NDB)
Fix

Horizontal Profiles

Position Reports

Time Latitude Longitude Heading Altitude Ground
Speed
24-Sep-19 07:49 34.210403 -119.077532 179 78ft 0kts
24-Sep-19 07:50 34.210402 -119.077532 179 78ft 0kts
24-Sep-19 07:51 34.210401 -119.077532 179 78ft 0kts
24-Sep-19 07:52 34.210400 -119.077532 179 78ft 0kts
24-Sep-19 07:53 34.210399 -119.077532 179 78ft 0kts
24-Sep-19 07:54 34.210397 -119.077532 179 78ft 0kts
24-Sep-19 07:55 34.210396 -119.077532 179 78ft 0kts
24-Sep-19 07:56 34.210395 -119.077532 179 78ft 0kts
24-Sep-19 07:57 34.210394 -119.077532 179 78ft 0kts
24-Sep-19 07:58 34.210393 -119.077532 180 78ft 0kts
24-Sep-19 07:59 34.210392 -119.077532 180 78ft 0kts
24-Sep-19 08:00 34.210391 -119.077532 180 78ft 0kts
24-Sep-19 08:01 34.210390 -119.077532 180 78ft 0kts
24-Sep-19 08:02 34.210389 -119.077532 180 78ft 0kts
24-Sep-19 08:04 34.210388 -119.077532 180 78ft 0kts
24-Sep-19 08:05 34.210386 -119.077532 180 78ft 0kts
24-Sep-19 08:06 34.210385 -119.077532 180 78ft 0kts
24-Sep-19 08:07 34.210384 -119.077532 180 78ft 0kts
24-Sep-19 08:08 34.210383 -119.077532 180 78ft 0kts
24-Sep-19 08:09 34.210382 -119.077532 180 78ft 0kts
24-Sep-19 08:10 34.210381 -119.077532 180 78ft 0kts
24-Sep-19 08:11 34.210380 -119.077532 180 78ft 0kts
24-Sep-19 08:12 34.210379 -119.077532 180 78ft 0kts
24-Sep-19 08:13 34.210378 -119.077532 180 78ft 0kts
24-Sep-19 08:14 34.210377 -119.077532 180 78ft 0kts
24-Sep-19 08:15 34.210376 -119.077532 180 78ft 0kts
24-Sep-19 08:16 34.210375 -119.077532 180 78ft 0kts
24-Sep-19 08:17 34.210374 -119.077532 180 78ft 0kts
24-Sep-19 08:18 34.210373 -119.077532 180 78ft 0kts
24-Sep-19 08:19 34.210372 -119.077532 180 78ft 0kts
24-Sep-19 08:20 34.210370 -119.077532 180 78ft 0kts
24-Sep-19 08:21 34.210369 -119.077532 180 78ft 0kts
24-Sep-19 08:22 34.210368 -119.077532 180 78ft 0kts
24-Sep-19 08:23 34.210367 -119.077532 180 78ft 0kts
24-Sep-19 08:23 34.210366 -119.077532 180 78ft 0kts
24-Sep-19 08:25 34.210365 -119.077532 181 78ft 0kts
24-Sep-19 08:26 34.210364 -119.077532 181 78ft 0kts
24-Sep-19 08:26 34.210363 -119.077532 181 78ft 0kts
24-Sep-19 08:28 34.210345 -119.077533 182 78ft 2kts
24-Sep-19 08:28 34.211057 -119.078756 307 78ft 6kts
24-Sep-19 08:29 34.211204 -119.082350 263 78ft 9kts
24-Sep-19 08:31 34.212578 -119.084594 358 78ft 13kts
24-Sep-19 08:31 34.212914 -119.084600 359 78ft 0kts
24-Sep-19 08:32 34.213619 -119.084931 288 78ft 4kts
24-Sep-19 08:33 34.213795 -119.104957 265 424ft 89kts
24-Sep-19 08:34 34.221376 -119.135147 286 1173ft 97kts
24-Sep-19 08:35 34.230193 -119.166142 286 1880ft 96kts
24-Sep-19 08:36 34.238850 -119.195508 287 2575ft 89kts
24-Sep-19 08:37 34.245692 -119.223546 286 3252ft 85kts
24-Sep-19 08:38 34.257779 -119.235166 65 3923ft 91kts
24-Sep-19 08:39 34.259694 -119.199672 81 4006ft 114kts
24-Sep-19 08:40 34.262726 -119.161414 82 3999ft 114kts
24-Sep-19 08:41 34.266414 -119.123231 82 4000ft 114kts
24-Sep-19 08:42 34.267984 -119.084898 92 4001ft 114kts
24-Sep-19 08:43 34.266109 -119.046392 91 4002ft 114kts
24-Sep-19 08:44 34.263526 -119.008020 91 4001ft 114kts
24-Sep-19 08:45 34.260970 -118.969540 91 4001ft 114kts
24-Sep-19 08:46 34.258551 -118.931110 91 3999ft 114kts
24-Sep-19 08:47 34.255507 -118.895420 127 3985ft 104kts
24-Sep-19 08:48 34.228722 -118.891640 181 4022ft 100kts
24-Sep-19 08:49 34.203538 -118.899442 241 3902ft 98kts
24-Sep-19 08:50 34.199450 -118.928879 268 3896ft 90kts
24-Sep-19 08:51 34.198851 -118.957507 270 4044ft 85kts
24-Sep-19 08:52 34.198272 -118.989132 278 3661ft 102kts
24-Sep-19 08:53 34.199515 -119.023926 269 2999ft 104kts
24-Sep-19 08:54 34.199260 -119.058420 271 2295ft 93kts
24-Sep-19 08:55 34.200212 -119.084909 266 1894ft 70kts
24-Sep-19 08:56 34.199892 -119.108582 265 1574ft 72kts
24-Sep-19 08:57 34.199632 -119.134235 265 1216ft 77kts
24-Sep-19 08:58 34.200623 -119.160610 269 788ft 79kts
24-Sep-19 08:59 34.200869 -119.186095 267 356ft 70kts
24-Sep-19 09:00 34.200796 -119.208903 271 46ft 48kts
24-Sep-19 09:01 34.200231 -119.212049 241 46ft 0kts

Navigation Log

Ident Type
Flight plan parsing failed, navigation log unavailable